Casino Beach, Iowa
Current Conditions -  °F | °C
As of 9:15 PM on Saturday 20 Dec 2014 (Local Time) from KSLB Reporting Station
Haze Haze  
Wind Chill: 23°   Ceiling: 300
Heat Index: 32°   Visibility: 3mi
Dew Point: 32°   Wind: 12mph
Humidity: 100%   Direction: 170°S
Pressure: 30.04"   Gusts: NA
Location:  42.674°N, 95.1635°W
Report Text: KSLB 210315Z AUTO 17010KT 3SM BR OVC003 M00/M00 A3004 RMK AO2
Loading
Personal Weather Stations






























Interactive Weather Map New forecast layout! Learn more

10-Day Weather Forecast

Advertisements
Track Severe Weather on mobile